Time;durP1;ratioP1;P1;durP2;ratioP2;P2;SDS_P1;SDS_P2;PMS_P1;PMS_P2;Temp;Humidity;BMP_temperature;BMP_pressure;BME280_temperature;BME280_humidity;BME280_pressure;Samples;Min_cycle;Max_cycle;Signal;HPM_P1;HPM_P2
2023/12/10 00:03:24;;;;;;;139.35;129.50;;;8.20;99.90;;;;;;12620904;28;20165;-35
2023/12/10 00:09:26;;;;;;;163.02;150.68;;;8.40;99.90;;;;;;12620794;28;20051;-35
2023/12/10 00:15:28;;;;;;;184.63;171.45;;;8.30;99.90;;;;;;12640135;28;20060;-35
2023/12/10 00:21:30;;;;;;;171.65;159.00;;;8.20;99.90;;;;;;12624381;28;20130;-35
2023/12/10 00:27:32;;;;;;;166.00;153.50;;;8.20;99.90;;;;;;12607282;28;20512;-34
2023/12/10 00:33:34;;;;;;;185.45;171.93;;;8.30;99.90;;;;;;12603217;28;20044;-34
2023/12/10 00:39:37;;;;;;;154.85;143.85;;;8.30;99.90;;;;;;12611454;28;20060;-35
2023/12/10 00:45:39;;;;;;;148.85;138.13;;;8.20;99.90;;;;;;12612423;28;20505;-34
2023/12/10 00:51:41;;;;;;;136.38;126.53;;;8.30;99.90;;;;;;12614616;28;20051;-34
2023/12/10 00:57:43;;;;;;;133.07;123.13;;;8.40;99.90;;;;;;12606349;28;20048;-34
2023/12/10 01:03:45;;;;;;;145.43;134.43;;;8.40;99.90;;;;;;12613673;28;20093;-35
2023/12/10 01:09:47;;;;;;;141.82;130.80;;;8.40;99.90;;;;;;12610901;28;20162;-34
2023/12/10 01:15:49;;;;;;;137.43;127.35;;;8.20;99.90;;;;;;12594499;28;20056;-35
2023/12/10 01:21:51;;;;;;;136.75;126.22;;;8.20;99.90;;;;;;12611749;28;20113;-35
2023/12/10 01:27:53;;;;;;;134.13;123.22;;;8.20;99.90;;;;;;12621085;28;20048;-35
2023/12/10 01:33:55;;;;;;;125.82;116.55;;;8.20;99.90;;;;;;12614564;28;20052;-35
2023/12/10 01:39:57;;;;;;;123.63;114.45;;;8.10;99.90;;;;;;12616922;28;20409;-35
2023/12/10 01:45:59;;;;;;;120.40;111.15;;;8.20;99.90;;;;;;12589879;28;20044;-35
2023/12/10 01:52:01;;;;;;;113.93;105.20;;;8.10;99.90;;;;;;12615171;28;20051;-35
2023/12/10 01:58:04;;;;;;;116.68;107.72;;;8.20;99.90;;;;;;12601681;28;20053;-35
2023/12/10 02:04:06;;;;;;;113.50;105.32;;;8.30;99.90;;;;;;12602364;28;20051;-34
2023/12/10 02:10:09;;;;;;;114.50;105.93;;;8.30;99.90;;;;;;12608482;28;20059;-35
2023/12/10 02:16:12;;;;;;;126.50;117.45;;;8.30;99.90;;;;;;12606133;28;20515;-35
2023/12/10 02:22:17;;;;;;;123.43;114.03;;;8.20;99.90;;;;;;12599481;28;20086;-35
2023/12/10 02:28:22;;;;;;;118.28;109.28;;;8.20;99.90;;;;;;12625889;28;20051;-34
2023/12/10 02:34:25;;;;;;;115.10;106.13;;;8.20;99.90;;;;;;12619154;28;20154;-35
2023/12/10 02:40:27;;;;;;;128.93;118.88;;;8.20;99.90;;;;;;12638042;28;20052;-35
2023/12/10 02:46:29;;;;;;;124.30;114.55;;;8.10;99.90;;;;;;12625933;28;20040;-35
2023/12/10 02:52:35;;;;;;;122.22;112.90;;;8.20;99.90;;;;;;12626057;28;20040;-35
2023/12/10 02:58:37;;;;;;;118.35;108.93;;;8.20;99.90;;;;;;12621819;28;20406;-35
2023/12/10 03:04:38;;;;;;;122.20;112.22;;;8.20;99.90;;;;;;12624035;28;20040;-35
2023/12/10 03:10:40;;;;;;;115.68;106.38;;;8.20;99.90;;;;;;12631918;28;20083;-35
2023/12/10 03:16:42;;;;;;;119.80;110.28;;;8.10;99.90;;;;;;12608655;28;20067;-35
2023/12/10 03:22:44;;;;;;;120.80;111.00;;;8.00;99.90;;;;;;12609151;28;20080;-35
2023/12/10 03:28:46;;;;;;;120.90;111.85;;;8.00;99.90;;;;;;12615884;28;20079;-36
2023/12/10 03:34:48;;;;;;;121.00;111.75;;;8.00;99.90;;;;;;12623345;28;20052;-35
2023/12/10 03:40:50;;;;;;;117.78;108.30;;;8.00;99.90;;;;;;12618916;28;20056;-35
2023/12/10 03:46:52;;;;;;;111.38;102.47;;;8.00;99.90;;;;;;12603586;28;20755;-35
2023/12/10 03:52:53;;;;;;;111.38;103.05;;;8.10;99.90;;;;;;12585756;28;20414;-35
2023/12/10 03:58:56;;;;;;;119.18;110.05;;;8.10;99.90;;;;;;12615539;28;20052;-35
2023/12/10 04:04:58;;;;;;;121.07;111.78;;;8.00;99.90;;;;;;12605210;28;20056;-35
2023/12/10 04:11:00;;;;;;;121.70;112.40;;;7.90;99.90;;;;;;12619494;28;20509;-35
2023/12/10 04:17:03;;;;;;;115.60;106.28;;;7.90;99.90;;;;;;12613517;28;20087;-35
2023/12/10 04:23:05;;;;;;;111.20;102.27;;;7.70;99.90;;;;;;12610427;28;20045;-35
2023/12/10 04:29:07;;;;;;;112.05;103.45;;;7.70;99.90;;;;;;12624497;28;20040;-35
2023/12/10 04:35:10;;;;;;;112.95;104.68;;;7.70;99.90;;;;;;12609263;28;20071;-35
2023/12/10 04:41:12;;;;;;;109.93;101.75;;;7.60;99.90;;;;;;12609722;28;20522;-35
2023/12/10 04:47:14;;;;;;;112.68;104.20;;;7.50;99.90;;;;;;12604194;28;20040;-35
2023/12/10 04:53:17;;;;;;;110.75;102.35;;;7.50;99.90;;;;;;12592033;28;20049;-34
2023/12/10 04:59:19;;;;;;;109.72;101.60;;;7.40;99.90;;;;;;12612495;28;20545;-35
2023/12/10 05:05:21;;;;;;;107.97;99.88;;;7.30;99.90;;;;;;12597539;28;20047;-35
2023/12/10 05:11:22;;;;;;;103.93;96.43;;;7.20;99.90;;;;;;12605046;28;20497;-35
2023/12/10 05:17:24;;;;;;;105.40;97.57;;;7.20;99.90;;;;;;12600286;28;20178;-35
2023/12/10 05:23:26;;;;;;;104.88;96.88;;;7.10;99.90;;;;;;12619480;28;20048;-35
2023/12/10 05:29:28;;;;;;;117.88;109.13;;;7.10;99.90;;;;;;12630631;28;20072;-35
2023/12/10 05:35:30;;;;;;;112.70;104.15;;;7.00;99.90;;;;;;12632255;28;20052;-35
2023/12/10 05:41:32;;;;;;;111.90;103.88;;;7.00;99.90;;;;;;12617261;28;20044;-35
2023/12/10 05:47:34;;;;;;;111.13;102.95;;;6.90;99.90;;;;;;12605232;28;20047;-35
2023/12/10 05:53:36;;;;;;;109.53;101.50;;;6.90;99.90;;;;;;12621397;28;20040;-35
2023/12/10 05:59:37;;;;;;;113.45;105.47;;;6.90;99.90;;;;;;12622888;28;20075;-35
2023/12/10 06:05:39;;;;;;;116.55;107.75;;;6.90;99.90;;;;;;12615966;28;20510;-35
2023/12/10 06:11:42;;;;;;;120.00;110.82;;;6.80;99.90;;;;;;12616602;28;20044;-35
2023/12/10 06:17:44;;;;;;;123.40;114.32;;;6.80;99.90;;;;;;12606631;28;20053;-35
2023/12/10 06:23:46;;;;;;;124.53;115.35;;;6.80;99.90;;;;;;12601367;28;20048;-35
2023/12/10 06:29:48;;;;;;;121.95;112.63;;;6.70;99.90;;;;;;12617013;28;20044;-35
2023/12/10 06:35:50;;;;;;;117.13;108.82;;;6.70;99.90;;;;;;12630222;28;20055;-35
2023/12/10 06:41:52;;;;;;;107.57;99.95;;;6.80;99.90;;;;;;12627662;28;20391;-35
2023/12/10 06:47:54;;;;;;;113.22;105.13;;;6.80;99.90;;;;;;12619130;28;20066;-34
2023/12/10 06:53:56;;;;;;;121.38;112.93;;;6.80;99.90;;;;;;12618105;28;20569;-35
2023/12/10 06:59:58;;;;;;;125.40;116.32;;;6.80;99.90;;;;;;12603441;28;20207;-35
2023/12/10 07:06:03;;;;;;;129.13;119.93;;;6.80;99.90;;;;;;12602173;28;20044;-35
2023/12/10 07:12:06;;;;;;;130.65;121.93;;;6.80;99.90;;;;;;12621449;28;20167;-35
2023/12/10 07:18:08;;;;;;;136.35;127.00;;;6.80;99.90;;;;;;12628036;28;20474;-34
2023/12/10 07:24:10;;;;;;;142.85;133.18;;;6.80;99.90;;;;;;12595391;28;20383;-36
2023/12/10 07:30:12;;;;;;;139.68;130.23;;;6.80;99.90;;;;;;12618863;28;20071;-35
2023/12/10 07:36:15;;;;;;;137.45;127.93;;;6.70;99.90;;;;;;12611438;28;20045;-35
2023/12/10 07:42:17;;;;;;;135.60;126.72;;;6.70;99.90;;;;;;12618415;28;20048;-34
2023/12/10 07:48:20;;;;;;;142.80;133.45;;;6.80;99.90;;;;;;12611931;28;20048;-35
2023/12/10 07:54:22;;;;;;;142.82;133.35;;;6.80;99.90;;;;;;12615931;28;20414;-35
2023/12/10 08:00:24;;;;;;;146.48;136.45;;;6.90;99.90;;;;;;12605088;28;20660;-35
2023/12/10 08:06:26;;;;;;;146.80;137.13;;;6.90;99.90;;;;;;12602269;28;20093;-35
2023/12/10 08:12:28;;;;;;;131.68;122.03;;;6.90;99.90;;;;;;12598982;28;20048;-35
2023/12/10 08:18:31;;;;;;;143.70;133.60;;;6.90;99.90;;;;;;12630918;28;20063;-35
2023/12/10 08:24:33;;;;;;;151.88;141.20;;;7.00;99.90;;;;;;12611333;28;20105;-35
2023/12/10 08:30:35;;;;;;;148.13;137.43;;;7.00;99.90;;;;;;12618521;28;20044;-35
2023/12/10 08:36:38;;;;;;;145.00;134.95;;;7.00;99.90;;;;;;12598791;28;20055;-34
2023/12/10 08:42:40;;;;;;;170.27;158.93;;;7.00;99.90;;;;;;12617884;28;20493;-35
2023/12/10 08:48:42;;;;;;;167.32;156.30;;;7.10;99.90;;;;;;12601871;28;20045;-35
2023/12/10 08:54:44;;;;;;;191.02;178.63;;;7.10;99.90;;;;;;12603326;28;20048;-35
2023/12/10 09:00:46;;;;;;;179.43;167.50;;;7.10;99.90;;;;;;12597002;28;20052;-33
2023/12/10 09:06:48;;;;;;;198.23;185.52;;;7.10;99.90;;;;;;12592458;28;20048;-35
2023/12/10 09:12:50;;;;;;;207.57;194.55;;;7.10;99.90;;;;;;12602929;28;20055;-35
2023/12/10 09:18:52;;;;;;;205.30;191.93;;;7.10;99.90;;;;;;12618305;28;20055;-35
2023/12/10 09:24:54;;;;;;;206.95;193.45;;;7.20;99.90;;;;;;12618074;28;21920;-35
2023/12/10 09:30:56;;;;;;;183.30;171.38;;;7.20;99.90;;;;;;12617837;28;20048;-35
2023/12/10 09:36:58;;;;;;;176.38;164.73;;;7.20;99.90;;;;;;12603308;28;20079;-35
2023/12/10 09:43:03;;;;;;;167.10;155.68;;;7.20;99.90;;;;;;12625625;28;20546;-35
2023/12/10 09:49:06;;;;;;;182.63;170.63;;;7.20;99.90;;;;;;12604086;28;20140;-35
2023/12/10 09:55:09;;;;;;;176.77;164.45;;;7.20;99.90;;;;;;12621624;28;20084;-35
2023/12/10 10:01:11;;;;;;;152.05;141.80;;;7.20;99.90;;;;;;12639393;28;20056;-35
2023/12/10 10:07:14;;;;;;;149.50;139.80;;;7.30;99.90;;;;;;12613791;28;20059;-35
2023/12/10 10:13:15;;;;;;;133.65;124.70;;;7.30;99.90;;;;;;12609394;28;20044;-35
2023/12/10 10:19:18;;;;;;;117.88;109.35;;;7.50;99.90;;;;;;12616096;28;20048;-35
2023/12/10 10:25:20;;;;;;;114.07;106.15;;;7.60;99.90;;;;;;12621887;28;20044;-36
2023/12/10 10:31:22;;;;;;;122.13;113.13;;;7.70;99.90;;;;;;12620078;28;20044;-35
2023/12/10 10:37:24;;;;;;;113.53;105.78;;;7.80;99.90;;;;;;12623597;28;20051;-36
2023/12/10 10:43:26;;;;;;;114.97;106.63;;;7.90;99.90;;;;;;12616338;28;20044;-36
2023/12/10 10:49:30;;;;;;;122.93;114.10;;;7.80;99.90;;;;;;12604778;28;20052;-36
2023/12/10 10:55:33;;;;;;;143.63;133.55;;;7.70;99.90;;;;;;12606701;28;20070;-35
2023/12/10 11:01:45;;;;;;;154.77;144.05;;;7.50;99.90;;;;;;12608093;28;20051;-36
2023/12/10 11:07:50;;;;;;;148.00;137.90;;;7.50;99.90;;;;;;12592554;28;20093;-35
2023/12/10 11:13:53;;;;;;;148.18;138.02;;;7.40;99.90;;;;;;12620557;28;20151;-35
2023/12/10 11:19:58;;;;;;;131.32;122.13;;;7.40;99.90;;;;;;12606564;28;20491;-36
2023/12/10 11:26:00;;;;;;;;;;;7.40;99.90;;;;;;12620817;28;20081;-35
2023/12/10 11:32:02;;;;;;;136.52;126.93;;;7.40;99.90;;;;;;12611258;28;19921;-35
2023/12/10 11:38:04;;;;;;;130.73;121.32;;;7.40;99.90;;;;;;12610628;28;20051;-35
2023/12/10 11:44:06;;;;;;;123.68;114.35;;;7.50;99.90;;;;;;12620509;28;20040;-35
2023/12/10 11:50:09;;;;;;;113.53;104.88;;;7.60;99.90;;;;;;12616924;28;20139;-35
2023/12/10 11:56:11;;;;;;;117.78;109.68;;;7.60;99.90;;;;;;12604545;28;20105;-35
2023/12/10 12:02:15;;;;;;;134.80;125.28;;;7.80;99.90;;;;;;12615467;28;20048;-36
2023/12/10 12:08:17;;;;;;;115.63;107.45;;;7.70;99.90;;;;;;12611004;28;20049;-35
2023/12/10 12:14:19;;;;;;;115.55;107.40;;;7.80;99.90;;;;;;12607080;28;20052;-35
2023/12/10 12:20:24;;;;;;;100.10;92.68;;;7.80;99.90;;;;;;12604180;28;20052;-35
2023/12/10 12:26:26;;;;;;;117.35;108.82;;;8.00;99.90;;;;;;12639266;28;20083;-35
2023/12/10 12:32:28;;;;;;;111.57;103.72;;;8.00;99.90;;;;;;12625131;28;20489;-36
2023/12/10 12:38:36;;;;;;;106.68;98.70;;;8.00;99.90;;;;;;12606307;28;20044;-36
2023/12/10 12:44:40;;;;;;;95.15;87.95;;;8.00;99.90;;;;;;12606323;28;20425;-35
2023/12/10 12:50:41;;;;;;;101.30;93.97;;;7.90;99.90;;;;;;12632598;28;20067;-36
2023/12/10 12:56:44;;;;;;;116.80;108.00;;;8.00;99.90;;;;;;12616631;28;20055;-35
2023/12/10 13:02:47;;;;;;;93.97;87.03;;;7.80;99.90;;;;;;12602237;28;20048;-36
2023/12/10 13:08:50;;;;;;;109.05;100.65;;;7.90;99.90;;;;;;12620907;28;20073;-36
2023/12/10 13:14:53;;;;;;;103.10;95.28;;;7.90;99.90;;;;;;12606488;28;20573;-35
2023/12/10 13:20:55;;;;;;;107.70;99.45;;;7.90;99.90;;;;;;12608355;28;20407;-35
2023/12/10 13:27:10;;;;;;;94.78;87.57;;;7.80;99.90;;;;;;12604135;28;20478;-36
2023/12/10 13:33:11;;;;;;;105.90;97.88;;;7.90;99.90;;;;;;12615315;28;20051;-36
2023/12/10 13:39:13;;;;;;;116.20;106.93;;;7.90;99.90;;;;;;12617280;28;20059;-35
2023/12/10 13:45:15;;;;;;;110.70;102.25;;;7.80;99.90;;;;;;12593955;28;20055;-36
2023/12/10 13:51:18;;;;;;;116.28;107.55;;;7.90;99.90;;;;;;12584915;28;20036;-36
2023/12/10 13:57:20;;;;;;;108.45;99.75;;;7.90;99.90;;;;;;12599130;28;20609;-36
2023/12/10 14:03:22;;;;;;;107.80;98.93;;;7.90;99.90;;;;;;12590602;28;20052;-36
2023/12/10 14:09:24;;;;;;;107.07;98.88;;;8.00;99.90;;;;;;12611450;28;20044;-36
2023/12/10 14:15:26;;;;;;;94.68;87.32;;;8.20;99.90;;;;;;12602450;28;20579;-36
2023/12/10 14:21:28;;;;;;;97.72;90.38;;;8.20;99.90;;;;;;12621487;28;20082;-35
2023/12/10 14:27:34;;;;;;;102.72;95.07;;;8.00;99.90;;;;;;12601407;28;20041;-35
2023/12/10 14:33:39;;;;;;;86.13;79.95;;;8.00;99.90;;;;;;12624189;28;20173;-35
2023/12/10 14:39:41;;;;;;;96.00;88.63;;;8.00;99.90;;;;;;12617950;28;20071;-36
2023/12/10 14:45:43;;;;;;;78.30;72.75;;;7.90;99.90;;;;;;12617708;28;20044;-35
2023/12/10 14:51:46;;;;;;;84.07;77.63;;;8.00;99.90;;;;;;12612367;28;20503;-36
2023/12/10 14:57:48;;;;;;;93.65;87.15;;;7.90;99.90;;;;;;12622018;28;20414;-35
2023/12/10 15:03:50;;;;;;;109.05;100.82;;;7.80;99.90;;;;;;12594888;28;20063;-36
2023/12/10 15:09:52;;;;;;;113.30;104.80;;;7.70;99.90;;;;;;12630998;28;20582;-35
2023/12/10 15:15:54;;;;;;;110.97;102.22;;;7.60;99.90;;;;;;12618785;28;20530;-36
2023/12/10 15:21:56;;;;;;;112.18;103.80;;;7.60;99.90;;;;;;12591070;28;20410;-36
2023/12/10 15:27:59;;;;;;;109.90;101.38;;;7.60;99.90;;;;;;12617314;28;20052;-36
2023/12/10 15:34:02;;;;;;;108.23;100.00;;;7.50;99.90;;;;;;12611587;28;20049;-35
2023/12/10 15:40:04;;;;;;;102.05;94.00;;;7.40;99.90;;;;;;12615289;28;20829;-35
2023/12/10 15:46:07;;;;;;;100.72;93.15;;;7.50;99.90;;;;;;12631917;28;20123;-36
2023/12/10 15:52:14;;;;;;;96.55;89.07;;;7.40;99.90;;;;;;12611829;28;20047;-36
2023/12/10 15:58:26;;;;;;;92.28;84.82;;;7.40;99.90;;;;;;12617628;28;20044;-35
2023/12/10 16:04:28;;;;;;;92.25;85.13;;;7.40;99.90;;;;;;12630304;28;20714;-36
2023/12/10 16:10:30;;;;;;;91.47;84.28;;;7.50;99.90;;;;;;12637234;28;20135;-35
2023/12/10 16:16:32;;;;;;;90.47;82.75;;;7.50;99.90;;;;;;12602990;28;20052;-36
2023/12/10 16:22:34;;;;;;;90.05;82.60;;;7.60;99.90;;;;;;12603579;28;20059;-36
2023/12/10 16:28:36;;;;;;;91.90;84.55;;;7.60;99.90;;;;;;12613325;28;20048;-35
2023/12/10 16:34:38;;;;;;;89.43;81.88;;;7.60;99.90;;;;;;12602908;28;20059;-35
2023/12/10 16:40:40;;;;;;;91.32;83.93;;;7.70;99.90;;;;;;12603154;28;20064;-35
2023/12/10 16:46:42;;;;;;;92.40;85.13;;;7.80;99.90;;;;;;12606120;28;20131;-36
2023/12/10 16:52:44;;;;;;;96.60;87.63;;;7.90;99.90;;;;;;12616729;28;20450;-36
2023/12/10 16:58:46;;;;;;;98.18;90.75;;;7.90;99.90;;;;;;12601612;28;20044;-35
2023/12/10 17:04:48;;;;;;;98.22;90.05;;;8.00;99.90;;;;;;12608392;28;20099;-35
2023/12/10 17:10:50;;;;;;;101.53;93.47;;;8.00;99.90;;;;;;12602416;28;20052;-35
2023/12/10 17:16:52;;;;;;;99.35;91.03;;;8.20;99.90;;;;;;12593820;28;20048;-35
2023/12/10 17:22:54;;;;;;;102.47;94.22;;;8.10;99.90;;;;;;12595881;28;20094;-36
2023/12/10 17:28:56;;;;;;;103.40;95.22;;;8.20;99.90;;;;;;12593663;28;20105;-35
2023/12/10 17:34:59;;;;;;;101.03;93.00;;;8.20;99.90;;;;;;12583987;28;20080;-35
2023/12/10 17:41:06;;;;;;;108.38;99.57;;;8.10;99.90;;;;;;12602530;28;20091;-35
2023/12/10 17:47:08;;;;;;;105.28;96.63;;;8.20;99.90;;;;;;12619353;28;20127;-36
2023/12/10 17:53:10;;;;;;;101.78;93.65;;;8.10;99.90;;;;;;12619421;28;20123;-36
2023/12/10 17:59:12;;;;;;;110.00;100.85;;;8.00;99.90;;;;;;12615580;28;20410;-35
2023/12/10 18:05:14;;;;;;;106.13;97.57;;;7.90;99.90;;;;;;12617415;28;20067;-36
2023/12/10 18:11:16;;;;;;;100.43;92.18;;;7.90;99.90;;;;;;12621962;28;20052;-36
2023/12/10 18:17:18;;;;;;;96.15;88.07;;;7.90;99.90;;;;;;12611446;28;20060;-35
2023/12/10 18:23:20;;;;;;;97.35;89.50;;;8.00;99.90;;;;;;12611412;28;20045;-36
2023/12/10 18:29:21;;;;;;;94.30;86.63;;;8.00;99.90;;;;;;12629975;28;20048;-35
2023/12/10 18:35:24;;;;;;;100.65;92.00;;;8.00;99.90;;;;;;12638910;28;20059;-36
2023/12/10 18:41:26;;;;;;;93.45;85.45;;;8.00;99.90;;;;;;12623213;28;20110;-36
2023/12/10 18:47:28;;;;;;;97.55;89.47;;;8.00;99.90;;;;;;12627384;28;20071;-36
2023/12/10 18:53:30;;;;;;;95.75;88.05;;;8.00;99.90;;;;;;12614652;28;20934;-36
2023/12/10 18:59:32;;;;;;;90.70;82.88;;;8.00;99.90;;;;;;12627629;28;20051;-36
2023/12/10 19:05:34;;;;;;;95.28;87.43;;;8.10;99.90;;;;;;12603382;28;20544;-36
2023/12/10 19:11:36;;;;;;;98.70;90.78;;;8.10;99.90;;;;;;12603634;28;20044;-36
2023/12/10 19:17:38;;;;;;;103.13;94.50;;;8.10;99.90;;;;;;12619619;28;20060;-36
2023/12/10 19:23:40;;;;;;;108.68;100.78;;;7.90;99.90;;;;;;12619033;28;20059;-36
2023/12/10 19:29:42;;;;;;;116.03;107.82;;;7.70;99.90;;;;;;12625573;28;20056;-36
2023/12/10 19:35:43;;;;;;;126.85;117.95;;;7.50;99.90;;;;;;12608987;28;20052;-36
2023/12/10 19:41:45;;;;;;;127.88;118.70;;;7.40;99.90;;;;;;12633190;28;20052;-36
2023/12/10 19:47:50;;;;;;;132.60;123.65;;;7.30;99.90;;;;;;12593462;28;20040;-36
2023/12/10 19:53:52;;;;;;;140.07;130.85;;;7.30;99.90;;;;;;12615186;28;20521;-35
2023/12/10 19:59:54;;;;;;;147.70;137.77;;;7.20;99.90;;;;;;12610615;28;20052;-36
2023/12/10 20:05:58;;;;;;;160.88;149.82;;;7.20;99.90;;;;;;12605821;28;20479;-35
2023/12/10 20:12:01;;;;;;;155.07;144.98;;;7.10;99.90;;;;;;12620791;28;20048;-35
2023/12/10 20:18:03;;;;;;;160.18;149.85;;;7.00;99.90;;;;;;12610617;28;20425;-36
2023/12/10 20:24:05;;;;;;;156.00;145.68;;;7.00;99.90;;;;;;12618129;28;20051;-35
2023/12/10 20:30:12;;;;;;;164.45;153.45;;;7.00;99.90;;;;;;12612901;28;20044;-36
2023/12/10 20:36:15;;;;;;;169.85;158.68;;;7.00;99.90;;;;;;12608307;28;20048;-35
2023/12/10 20:42:17;;;;;;;181.38;169.77;;;7.00;99.90;;;;;;12609127;28;20071;-35
2023/12/10 20:48:20;;;;;;;186.13;174.35;;;7.00;99.90;;;;;;12596964;28;20068;-35
2023/12/10 20:54:22;;;;;;;186.63;174.70;;;7.00;99.90;;;;;;12611254;28;20043;-36
2023/12/10 21:00:24;;;;;;;189.75;178.25;;;7.00;99.90;;;;;;12594905;28;20518;-35
2023/12/10 21:06:26;;;;;;;196.63;184.70;;;7.00;99.90;;;;;;12614684;28;20047;-36
2023/12/10 21:12:28;;;;;;;203.48;191.43;;;7.20;99.90;;;;;;12606515;28;20067;-35
2023/12/10 21:18:30;;;;;;;176.45;165.65;;;7.30;99.90;;;;;;12599734;28;20211;-36
2023/12/10 21:24:32;;;;;;;172.38;161.40;;;7.60;99.90;;;;;;12620512;28;20485;-36
2023/12/10 21:30:35;;;;;;;191.95;180.55;;;7.70;99.90;;;;;;12607383;28;20041;-36
2023/12/10 21:36:37;;;;;;;185.48;174.00;;;7.80;99.90;;;;;;12605787;28;20139;-35
2023/12/10 21:42:38;;;;;;;169.70;158.80;;;8.00;99.90;;;;;;12592520;28;20036;-36
2023/12/10 21:48:41;;;;;;;204.82;192.40;;;8.20;99.90;;;;;;12600006;28;20061;-36
2023/12/10 21:54:43;;;;;;;182.13;171.02;;;8.40;99.90;;;;;;12608721;28;20513;-36
2023/12/10 22:00:46;;;;;;;199.55;187.43;;;8.40;99.90;;;;;;12611742;28;20640;-36
2023/12/10 22:06:48;;;;;;;191.75;179.63;;;8.50;99.90;;;;;;12609620;28;20036;-36
2023/12/10 22:12:49;;;;;;;176.00;164.82;;;8.60;99.90;;;;;;12603696;28;20123;-36
2023/12/10 22:18:53;;;;;;;175.15;164.02;;;8.80;99.90;;;;;;12607451;28;20103;-35
2023/12/10 22:24:56;;;;;;;173.30;162.20;;;9.00;99.90;;;;;;12602251;28;20052;-36
2023/12/10 22:30:58;;;;;;;175.98;164.43;;;9.10;99.90;;;;;;12598752;28;20101;-36
2023/12/10 22:36:59;;;;;;;167.73;156.40;;;9.00;99.90;;;;;;12608068;28;20067;-36
2023/12/10 22:43:01;;;;;;;159.90;149.35;;;9.10;99.90;;;;;;12594892;28;20048;-35
2023/12/10 22:49:03;;;;;;;157.98;147.38;;;9.20;99.90;;;;;;12619323;28;20079;-36
2023/12/10 22:55:08;;;;;;;143.50;133.82;;;9.20;99.90;;;;;;12600452;28;20051;-35
2023/12/10 23:01:10;;;;;;;;;;;9.30;99.90;;;;;;12618789;28;20044;-36
2023/12/10 23:07:12;;;;;;;137.95;128.57;;;9.40;99.90;;;;;;12633467;28;19935;-36
2023/12/10 23:13:14;;;;;;;144.40;134.43;;;9.40;99.90;;;;;;12597624;28;20052;-36
2023/12/10 23:19:16;;;;;;;144.77;134.88;;;9.50;99.90;;;;;;12601997;28;20067;-36
2023/12/10 23:25:18;;;;;;;128.88;119.75;;;9.50;99.90;;;;;;12619082;28;20499;-36
2023/12/10 23:31:20;;;;;;;143.05;132.40;;;9.70;99.90;;;;;;12603560;28;20059;-36
2023/12/10 23:37:22;;;;;;;127.78;118.60;;;9.60;99.90;;;;;;12616079;28;20055;-35
2023/12/10 23:43:24;;;;;;;126.20;117.22;;;9.70;99.90;;;;;;12632407;28;20074;-36
2023/12/10 23:49:26;;;;;;;120.32;111.60;;;9.70;99.90;;;;;;12613773;28;20485;-36
2023/12/10 23:55:28;;;;;;;119.65;110.57;;;9.80;99.90;;;;;;12637216;28;20047;-35
